AKDT,Max TemperatureF,Mean TemperatureF,Min TemperatureF,Max Dew PointF,MeanDew PointF,Min DewpointF,Max Humidity, Mean Humidity, Min Humidity, Max Sea Level PressureIn, Mean Sea Level PressureIn, Min Sea Level PressureIn, Max VisibilityMiles, Mean VisibilityMiles, Min VisibilityMiles, Max Wind SpeedMPH, Mean Wind SpeedMPH, Max Gust SpeedMPH,PrecipitationIn, CloudCover, Events, WindDirDegrees
2013-9-1,66,58,51,54,50,46,94,79,60,29.97,29.90,29.87,10,6,0,8,3,,0.00,4,,248
2013-9-2,66,58,50,55,50,46,88,79,64,30.01,29.96,29.91,10,10,10,7,2,,0.00,3,,310
2013-9-3,69,60,51,55,51,46,94,78,56,30.02,29.99,29.94,10,9,0,7,3,,0.00,2,,265
2013-9-4,60,56,53,54,52,48,94,85,77,30.10,30.06,29.99,10,9,5,10,2,,0.10,6,,118
2013-9-5,62,56,51,54,52,48,88,82,63,30.25,30.19,30.11,10,10,7,7,3,,0.02,6,,330
2013-9-6,66,58,51,54,51,48,94,81,60,30.25,30.20,30.13,10,7,0,7,3,,0.00,3,,91
2013-9-7,71,61,51,57,53,48,94,76,56,30.15,30.03,29.86,10,10,10,18,4,26,0.00,4,,124
2013-9-8,69,60,50,55,51,45,88,75,56,30.19,30.08,29.85,10,10,3,16,6,23,0.45,5,,261
2013-9-9,60,54,48,48,47,45,93,80,59,30.19,30.17,30.13,10,9,0,7,3,,0.00,5,,209
2013-9-10,62,56,51,52,49,46,88,79,68,30.13,30.11,30.08,10,10,5,8,2,,0.00,7,,132
2013-9-11,69,60,51,55,52,48,94,78,56,30.11,30.05,29.99,10,10,9,10,3,,0.00,3,,263
2013-9-12,60,56,53,54,52,50,94,86,77,30.09,30.05,30.01,10,7,1,12,5,,0.00,8,,276
2013-9-13,62,56,51,52,50,46,94,80,63,30.11,30.06,29.96,10,9,0,9,4,,0.00,5,,297
2013-9-14,66,56,46,52,46,43,93,77,56,29.96,29.88,29.80,10,8,0,7,2,,0.00,1,,324
2013-9-15,62,54,46,48,46,43,93,77,55,29.80,29.69,29.60,10,10,10,7,1,,0.00,2,,274
2013-9-16,57,54,51,50,47,45,88,78,63,29.76,29.70,29.65,10,10,6,15,6,24,1.81,7,,121
2013-9-17,57,54,50,48,47,45,88,80,67,29.82,29.78,29.74,10,10,7,15,6,17,0.82,7,,118
2013-9-18,55,52,48,48,47,45,87,80,72,29.88,29.84,29.72,10,10,4,12,6,,0.08,7,,109
2013-9-19,57,54,51,52,48,45,88,80,72,29.72,29.38,29.16,10,9,7,23,12,30,1.13,7,,110
2013-9-20,59,55,51,50,48,46,82,76,67,29.50,29.29,29.15,10,9,6,26,17,34,0.65,7,,129
2013-9-21,53,52,50,46,43,39,82,72,62,29.50,29.34,29.10,10,10,7,25,8,30,0.05,6,,123
2013-9-22,53,50,48,46,43,39,87,73,58,29.26,29.09,29.01,10,10,7,23,16,30,0.75,7,,120
2013-9-23,53,50,46,45,42,39,87,76,62,29.72,29.49,29.27,10,10,5,16,10,22,0.13,6,,115
2013-9-24,53,50,46,45,42,41,87,81,67,30.05,29.87,29.73,10,10,10,8,6,,0.00,7,,129
2013-9-25,53,48,44,45,42,37,93,77,62,30.19,30.17,30.12,10,4,0,6,3,,0.00,4,Fog,79
2013-9-26,51,50,48,48,45,43,94,83,71,30.01,29.85,29.79,10,8,4,13,6,18,0.14,8,Rain,108
2013-9-27,51,50,48,45,42,39,87,77,67,29.78,29.54,29.15,10,10,8,20,10,26,0.45,8,,121
2013-9-28,51,48,44,45,41,37,87,79,62,29.14,28.99,28.94,10,10,10,21,9,28,0.25,6,,126
2013-9-29,48,44,41,43,40,37,87,84,76,29.16,29.01,28.92,10,9,0,8,4,,0.04,6,,117
2013-9-30,46,44,42,45,41,37,93,84,81,29.55,29.33,29.16,10,7,0,7,4,,0.18,8,,109